createdAt,value
2022-10-23T00:01:44.661Z,1.30
2022-10-23T00:04:20.676Z,1.33
2022-10-23T00:06:48.932Z,1.17
2022-10-23T00:09:19.305Z,1.21
2022-10-23T00:11:47.827Z,1.39
2022-10-23T00:14:16.021Z,1.29
2022-10-23T00:16:42.591Z,1.23
2022-10-23T00:19:09.279Z,1.41
2022-10-23T00:21:36.237Z,1.39
2022-10-23T00:24:03.007Z,1.59
2022-10-23T00:26:29.708Z,1.63
2022-10-23T00:28:56.400Z,1.51
2022-10-23T00:31:26.162Z,1.50
2022-10-23T00:33:53.091Z,1.47
2022-10-23T00:36:21.302Z,1.51
2022-10-23T00:38:48.767Z,1.46
2022-10-23T00:41:22.010Z,1.39
2022-10-23T00:44:01.863Z,1.54
2022-10-23T00:46:28.718Z,1.43
2022-10-23T00:48:56.963Z,1.29
2022-10-23T00:51:27.704Z,1.27
2022-10-23T00:54:12.910Z,1.23
2022-10-23T00:56:46.699Z,1.28
2022-10-23T00:59:14.162Z,1.18
2022-10-23T01:01:41.513Z,1.14
2022-10-23T01:04:09.984Z,1.14
2022-10-23T01:06:52.754Z,1.02
2022-10-23T01:09:37.586Z,1.11
2022-10-23T01:12:23.684Z,1.03
2022-10-23T01:15:01.057Z,1.03
2022-10-23T01:17:42.353Z,1.06
2022-10-23T01:20:35.276Z,1.06
2022-10-23T01:23:12.297Z,1.14
2022-10-23T01:25:57.169Z,1.15
2022-10-23T01:28:39.698Z,1.18
2022-10-23T01:31:16.225Z,1.17
2022-10-23T01:33:48.822Z,1.35
2022-10-23T01:36:20.867Z,1.34
2022-10-23T01:38:58.287Z,1.21
2022-10-23T01:41:24.899Z,1.28
2022-10-23T01:43:51.544Z,1.24
2022-10-23T01:46:18.761Z,1.08
2022-10-23T01:48:55.515Z,1.12
2022-10-23T01:51:27.982Z,1.30
2022-10-23T01:54:01.040Z,1.22
2022-10-23T01:56:35.538Z,1.21
2022-10-23T01:59:08.569Z,1.19
2022-10-23T02:01:41.737Z,1.14
2022-10-23T02:04:13.290Z,1.06
2022-10-23T02:06:39.967Z,0.93
2022-10-23T02:09:07.709Z,1.19
2022-10-23T02:11:48.400Z,1.19
2022-10-23T02:14:35.168Z,1.03
2022-10-23T02:17:40.788Z,1.07
2022-10-23T02:20:10.268Z,1.07
2022-10-23T02:22:44.228Z,0.98
2022-10-23T02:25:19.918Z,1.14
2022-10-23T02:27:56.967Z,0.96
2022-10-23T02:30:24.036Z,0.99
2022-10-23T02:32:54.716Z,1.00
2022-10-23T02:35:24.820Z,1.03
2022-10-23T02:37:56.469Z,0.97
2022-10-23T02:40:31.570Z,1.14
2022-10-23T02:43:20.130Z,1.10
2022-10-23T02:46:25.582Z,1.18
2022-10-23T02:49:15.200Z,1.13
2022-10-23T02:52:00.736Z,1.28
2022-10-23T02:54:47.573Z,1.28
2022-10-23T02:57:35.436Z,1.11
2022-10-23T03:00:01.962Z,1.09
2022-10-23T03:02:50.108Z,1.14
2022-10-23T03:05:22.211Z,1.34
2022-10-23T03:07:49.876Z,1.18
2022-10-23T03:10:16.581Z,1.19
2022-10-23T03:12:44.084Z,1.04
2022-10-23T03:15:11.762Z,1.09
2022-10-23T03:17:38.574Z,1.14
2022-10-23T03:20:06.651Z,1.19
2022-10-23T03:22:33.932Z,1.13
2022-10-23T03:25:00.562Z,1.17
2022-10-23T03:29:58.614Z,1.09
2022-10-23T03:32:25.236Z,1.19
2022-10-23T03:34:51.833Z,1.16
2022-10-23T03:37:21.598Z,1.08
2022-10-23T03:39:48.435Z,1.13
2022-10-23T03:42:15.028Z,0.95
2022-10-23T03:44:41.623Z,1.03
2022-10-23T03:47:08.194Z,0.97
2022-10-23T03:49:34.782Z,1.07
2022-10-23T03:52:01.412Z,1.13
2022-10-23T03:54:28.325Z,1.22
2022-10-23T03:56:57.522Z,1.12
2022-10-23T03:59:24.682Z,1.23
2022-10-23T04:01:52.935Z,1.44
2022-10-23T04:04:19.690Z,1.28
2022-10-23T04:06:46.309Z,1.33
2022-10-23T04:11:44.673Z,1.17
2022-10-23T04:14:31.254Z,1.20
2022-10-23T04:17:05.050Z,1.17
2022-10-23T04:19:31.676Z,1.31
2022-10-23T04:21:58.278Z,1.23
2022-10-23T04:24:25.883Z,1.27
2022-10-23T04:26:52.694Z,1.23
2022-10-23T04:29:19.727Z,1.30
2022-10-23T04:31:46.321Z,1.28
2022-10-23T04:34:12.924Z,1.13
2022-10-23T04:36:39.502Z,1.13
2022-10-23T04:39:06.284Z,1.25
2022-10-23T04:41:32.942Z,1.38
2022-10-23T04:43:59.583Z,1.65
2022-10-23T04:46:26.198Z,1.81
2022-10-23T04:48:52.772Z,1.51
2022-10-23T04:51:19.376Z,1.58
2022-10-23T04:53:45.982Z,1.25
2022-10-23T04:56:15.773Z,1.44
2022-10-23T04:58:42.839Z,1.34
2022-10-23T05:01:10.559Z,1.63
2022-10-23T05:03:38.295Z,1.47
2022-10-23T05:06:06.148Z,2.90
2022-10-23T05:08:33.052Z,3.51
2022-10-23T05:10:59.921Z,7.93
2022-10-23T05:13:26.502Z,8.34
2022-10-23T05:15:53.745Z,5.33
2022-10-23T05:18:29.102Z,3.49
2022-10-23T05:21:02.477Z,2.68
2022-10-23T05:23:33.254Z,3.19
2022-10-23T05:26:00.362Z,3.97
2022-10-23T05:28:27.078Z,2.60
2022-10-23T05:30:53.781Z,1.93
2022-10-23T05:33:20.509Z,1.61
2022-10-23T05:35:47.176Z,1.87
2022-10-23T05:38:15.242Z,1.78
2022-10-23T05:40:41.873Z,2.35
2022-10-23T05:43:08.459Z,3.22
2022-10-23T05:45:35.199Z,2.13
2022-10-23T05:48:11.029Z,2.33
2022-10-23T05:50:48.616Z,2.17
2022-10-23T05:53:15.200Z,2.17
2022-10-23T05:55:44.093Z,2.27
2022-10-23T05:58:10.712Z,2.02
2022-10-23T06:00:37.273Z,1.68
2022-10-23T06:03:03.990Z,1.74
2022-10-23T06:05:30.586Z,1.86
2022-10-23T06:07:58.945Z,1.52
2022-10-23T06:10:26.445Z,1.59
2022-10-23T06:12:53.041Z,1.77
2022-10-23T06:15:19.669Z,2.03
2022-10-23T06:17:46.418Z,2.16
2022-10-23T06:20:13.237Z,1.91
2022-10-23T06:22:40.185Z,1.84
2022-10-23T06:25:07.863Z,1.57
2022-10-23T06:27:34.451Z,1.40
2022-10-23T06:30:01.028Z,1.46
2022-10-23T06:32:32.316Z,1.41
2022-10-23T06:34:58.953Z,1.44
2022-10-23T06:37:25.510Z,1.57
2022-10-23T06:39:52.083Z,1.47
2022-10-23T06:42:18.764Z,1.40
2022-10-23T06:44:45.338Z,1.43
2022-10-23T06:47:12.039Z,1.44
2022-10-23T06:49:38.668Z,1.42
2022-10-23T06:52:05.312Z,1.36
2022-10-23T06:54:33.396Z,1.32
2022-10-23T06:57:00.054Z,1.42
2022-10-23T06:59:26.764Z,1.43
2022-10-23T07:04:20.178Z,1.42
2022-10-23T07:06:46.827Z,1.31
2022-10-23T07:09:15.554Z,1.33
2022-10-23T07:11:42.216Z,1.28
2022-10-23T07:14:08.901Z,1.34
2022-10-23T07:16:35.645Z,1.69
2022-10-23T07:19:02.362Z,1.30
2022-10-23T07:21:32.457Z,1.46
2022-10-23T07:23:59.273Z,1.57
2022-10-23T07:26:25.934Z,1.83
2022-10-23T07:28:53.462Z,1.47
2022-10-23T07:31:23.061Z,1.92
2022-10-23T07:33:53.198Z,1.58
2022-10-23T07:36:19.826Z,1.63
2022-10-23T07:38:46.651Z,1.92
2022-10-23T07:41:13.324Z,1.84
2022-10-23T07:43:39.948Z,1.91
2022-10-23T07:46:06.596Z,1.64
2022-10-23T07:48:33.236Z,1.63
2022-10-23T07:51:02.623Z,1.79
2022-10-23T07:53:29.455Z,1.87
2022-10-23T07:55:58.957Z,1.87
2022-10-23T07:58:27.741Z,2.12
2022-10-23T08:01:00.100Z,2.35
2022-10-23T08:03:28.202Z,2.23
2022-10-23T08:05:55.376Z,2.17
2022-10-23T08:08:23.209Z,2.19
2022-10-23T08:10:51.772Z,2.37
2022-10-23T08:13:18.493Z,2.29
2022-10-23T08:15:45.252Z,2.29
2022-10-23T08:18:12.094Z,2.03
2022-10-23T08:20:41.181Z,2.06
2022-10-23T08:23:08.496Z,1.96
2022-10-23T08:25:35.278Z,1.87
2022-10-23T08:28:04.279Z,2.29
2022-10-23T08:30:33.152Z,2.48
2022-10-23T08:32:59.748Z,2.57
2022-10-23T08:35:26.443Z,2.83
2022-10-23T08:37:53.065Z,2.91
2022-10-23T08:40:24.107Z,3.07
2022-10-23T08:43:01.803Z,3.51
2022-10-23T08:45:56.948Z,3.54
2022-10-23T08:48:37.947Z,3.58
2022-10-23T08:51:46.744Z,3.87
2022-10-23T08:54:22.576Z,4.06
2022-10-23T08:57:04.880Z,3.83
2022-10-23T08:59:43.955Z,3.73
2022-10-23T09:02:19.784Z,4.41
2022-10-23T09:04:48.904Z,5.53
2022-10-23T09:07:46.695Z,4.33
2022-10-23T09:10:23.744Z,5.60
2022-10-23T09:12:50.461Z,4.19
2022-10-23T09:15:42.573Z,5.57
2022-10-23T09:18:15.721Z,5.21
2022-10-23T09:20:45.480Z,3.41
2022-10-23T09:23:22.722Z,3.95
2022-10-23T09:25:51.762Z,5.58
2022-10-23T09:28:21.236Z,4.06
2022-10-23T09:30:49.023Z,3.67
2022-10-23T09:33:27.463Z,3.49
2022-10-23T09:36:06.408Z,3.58
2022-10-23T09:38:36.783Z,3.19
2022-10-23T09:41:25.807Z,3.27
2022-10-23T09:44:02.464Z,3.83
2022-10-23T09:46:43.099Z,3.68
2022-10-23T09:49:26.438Z,3.92
2022-10-23T09:52:08.162Z,3.73
2022-10-23T09:54:49.864Z,4.10
2022-10-23T09:57:22.617Z,4.46
2022-10-23T09:59:55.205Z,4.43
2022-10-23T10:02:30.732Z,4.17
2022-10-23T10:04:57.687Z,4.30
2022-10-23T10:07:30.193Z,4.47
2022-10-23T10:09:58.921Z,4.15
2022-10-23T10:12:43.904Z,4.54
2022-10-23T10:15:22.676Z,4.84
2022-10-23T10:18:13.491Z,4.77
2022-10-23T10:21:17.511Z,4.70
2022-10-23T10:24:30.365Z,4.77
2022-10-23T10:27:27.037Z,4.84
2022-10-23T10:30:21.801Z,5.25
2022-10-23T10:33:14.105Z,5.63
2022-10-23T10:36:18.974Z,5.85
2022-10-23T10:38:52.802Z,5.21
2022-10-23T10:41:22.406Z,5.07
2022-10-23T10:43:55.088Z,5.16
2022-10-23T10:46:39.810Z,4.56
2022-10-23T10:49:24.442Z,4.91
2022-10-23T10:52:11.819Z,4.42
2022-10-23T10:55:13.806Z,4.28
2022-10-23T10:57:47.218Z,4.07
2022-10-23T11:00:21.114Z,3.88
2022-10-23T11:03:01.512Z,4.00
2022-10-23T11:05:34.861Z,3.59
2022-10-23T11:08:09.650Z,3.65
2022-10-23T11:10:45.841Z,3.79
2022-10-23T11:13:35.368Z,3.82
2022-10-23T11:16:11.325Z,4.15
2022-10-23T11:18:43.064Z,3.81
2022-10-23T11:21:52.831Z,3.93
2022-10-23T11:24:34.588Z,4.18
2022-10-23T11:27:07.199Z,3.97
2022-10-23T11:30:01.867Z,4.42
2022-10-23T11:32:31.559Z,4.25
2022-10-23T11:35:16.645Z,4.28
2022-10-23T11:37:43.760Z,4.18
2022-10-23T11:40:10.585Z,4.11
2022-10-23T11:42:40.151Z,4.54
2022-10-23T11:45:36.721Z,4.56
2022-10-23T11:48:13.589Z,4.28
2022-10-23T11:50:46.115Z,4.33
2022-10-23T11:53:24.901Z,4.51
2022-10-23T11:56:05.183Z,4.26
2022-10-23T11:58:50.498Z,4.24
2022-10-23T12:01:26.084Z,4.32
2022-10-23T12:04:16.344Z,4.11
2022-10-23T12:06:49.312Z,4.11
2022-10-23T12:09:43.751Z,4.71
2022-10-23T12:12:10.339Z,4.96
2022-10-23T12:14:48.855Z,5.20
2022-10-23T12:17:24.725Z,5.47
2022-10-23T12:20:01.656Z,5.01
2022-10-23T12:22:51.442Z,4.83
2022-10-23T12:25:25.097Z,4.52
2022-10-23T12:28:32.133Z,4.20
2022-10-23T12:31:21.437Z,4.67
2022-10-23T12:33:50.927Z,4.68
2022-10-23T12:36:20.357Z,4.93
2022-10-23T12:38:48.919Z,5.31
2022-10-23T12:41:26.697Z,5.36
2022-10-23T12:43:58.187Z,5.38
2022-10-23T12:46:42.001Z,5.38
2022-10-23T12:49:21.376Z,5.40
2022-10-23T12:51:59.844Z,5.05
2022-10-23T12:54:27.252Z,5.10
2022-10-23T12:56:55.346Z,5.49
2022-10-23T12:59:32.170Z,5.63
2022-10-23T13:01:58.890Z,5.61
2022-10-23T13:04:30.387Z,6.12
2022-10-23T13:07:00.769Z,5.60
2022-10-23T13:09:36.362Z,6.12
2022-10-23T13:12:06.444Z,5.40
2022-10-23T13:14:39.311Z,6.08
2022-10-23T13:17:11.664Z,5.77
2022-10-23T13:19:41.523Z,5.75
2022-10-23T13:22:20.371Z,5.66
2022-10-23T13:24:47.872Z,5.43
2022-10-23T13:27:35.023Z,5.10
2022-10-23T13:30:03.198Z,5.02
2022-10-23T13:32:31.670Z,5.09
2022-10-23T13:35:10.053Z,5.23
2022-10-23T13:37:37.136Z,5.05
2022-10-23T13:40:06.988Z,5.13
2022-10-23T13:42:33.755Z,5.78
2022-10-23T13:45:00.385Z,5.66
2022-10-23T13:47:27.010Z,5.59
2022-10-23T13:49:53.644Z,5.17
2022-10-23T13:52:22.454Z,5.13
2022-10-23T13:54:49.493Z,4.66
2022-10-23T13:57:16.568Z,4.71
2022-10-23T13:59:45.901Z,6.18
2022-10-23T14:02:21.942Z,3.40
2022-10-23T14:04:52.104Z,3.34
2022-10-23T14:07:19.227Z,2.79
2022-10-23T14:09:45.832Z,2.84
2022-10-23T14:12:12.437Z,2.67
2022-10-23T14:14:39.247Z,3.01
2022-10-23T14:17:05.892Z,7.77
2022-10-23T14:22:02.011Z,3.92
2022-10-23T14:24:28.724Z,3.36
2022-10-23T14:26:55.370Z,3.33
2022-10-23T14:29:24.673Z,3.13
2022-10-23T14:31:51.708Z,3.06
2022-10-23T14:34:18.815Z,2.95
2022-10-23T14:36:50.233Z,2.94
2022-10-23T14:39:17.968Z,3.60
2022-10-23T14:41:44.615Z,4.16
2022-10-23T14:44:11.262Z,4.57
2022-10-23T14:46:37.906Z,5.33
2022-10-23T14:49:04.592Z,5.34
2022-10-23T14:51:31.362Z,4.77
2022-10-23T14:54:04.335Z,5.02
2022-10-23T14:56:33.745Z,4.74
2022-10-23T14:59:00.978Z,4.46
2022-10-23T15:01:27.781Z,4.80
2022-10-23T15:03:54.590Z,4.27
2022-10-23T15:06:21.611Z,4.32
2022-10-23T15:08:52.726Z,4.43
2022-10-23T15:11:19.366Z,3.99
2022-10-23T15:13:46.011Z,3.59
2022-10-23T15:16:13.116Z,3.52
2022-10-23T15:18:39.808Z,3.13
2022-10-23T15:21:08.035Z,2.99
2022-10-23T15:23:39.777Z,3.23
2022-10-23T15:26:14.065Z,3.27
2022-10-23T15:28:40.724Z,3.27
2022-10-23T15:31:39.326Z,3.16
2022-10-23T15:34:07.393Z,3.24
2022-10-23T15:36:34.359Z,3.38
2022-10-23T15:39:02.080Z,3.28
2022-10-23T15:41:31.602Z,3.08
2022-10-23T15:43:59.993Z,3.91
2022-10-23T15:46:26.730Z,4.98
2022-10-23T15:48:53.983Z,11.62
2022-10-23T15:51:21.208Z,4.57
2022-10-23T15:53:48.148Z,4.39
2022-10-23T15:56:14.792Z,6.99
2022-10-23T15:58:41.699Z,21.27
2022-10-23T16:01:11.383Z,7.21
2022-10-23T16:03:39.110Z,4.21
2022-10-23T16:06:15.171Z,4.02
2022-10-23T16:08:42.337Z,4.35
2022-10-23T16:11:21.767Z,8.39
2022-10-23T16:13:48.394Z,7.54
2022-10-23T16:16:16.408Z,3.70
2022-10-23T16:18:43.869Z,3.67
2022-10-23T16:21:23.069Z,3.51
2022-10-23T16:23:50.948Z,3.92
2022-10-23T16:26:19.075Z,3.75
2022-10-23T16:28:47.288Z,3.88
2022-10-23T16:31:20.053Z,3.77
2022-10-23T16:33:48.987Z,4.24
2022-10-23T16:36:17.333Z,6.81
2022-10-23T16:38:44.083Z,7.65
2022-10-23T16:41:10.735Z,4.23
2022-10-23T16:43:37.387Z,3.58
2022-10-23T16:46:08.118Z,3.66
2022-10-23T16:48:35.567Z,3.63
2022-10-23T16:51:14.353Z,3.53
2022-10-23T16:53:42.567Z,3.41
2022-10-23T16:56:11.728Z,3.56
2022-10-23T16:58:38.778Z,3.57
2022-10-23T17:01:09.411Z,3.88
2022-10-23T17:03:46.109Z,4.01
2022-10-23T17:06:15.280Z,4.02
2022-10-23T17:08:42.518Z,4.05
2022-10-23T17:11:16.543Z,4.19
2022-10-23T17:13:55.250Z,3.98
2022-10-23T17:16:26.709Z,3.92
2022-10-23T17:18:54.140Z,3.82
2022-10-23T17:21:22.045Z,4.01
2022-10-23T17:23:50.290Z,4.18
2022-10-23T17:26:20.470Z,4.89
2022-10-23T17:28:50.002Z,5.31
2022-10-23T17:31:16.682Z,5.76
2022-10-23T17:33:44.808Z,6.36
2022-10-23T17:36:15.559Z,4.92
2022-10-23T17:38:43.298Z,4.67
2022-10-23T17:41:12.477Z,4.84
2022-10-23T17:43:39.856Z,4.31
2022-10-23T17:46:08.956Z,4.40
2022-10-23T17:48:36.422Z,4.28
2022-10-23T17:51:06.506Z,4.49
2022-10-23T17:53:35.063Z,4.35
2022-10-23T17:56:03.476Z,4.42
2022-10-23T17:58:30.886Z,4.53
2022-10-23T18:00:57.779Z,4.77
2022-10-23T18:03:24.797Z,4.76
2022-10-23T18:05:51.465Z,5.26
2022-10-23T18:08:18.054Z,5.13
2022-10-23T18:10:44.673Z,5.72
2022-10-23T18:13:11.254Z,5.68
2022-10-23T18:15:37.901Z,5.69
2022-10-23T18:18:04.471Z,5.59
2022-10-23T18:20:31.058Z,5.66
2022-10-23T18:22:57.636Z,5.46
2022-10-23T18:25:24.213Z,6.23
2022-10-23T18:27:50.830Z,5.67
2022-10-23T18:30:17.489Z,6.63
2022-10-23T18:32:44.225Z,6.60
2022-10-23T18:35:11.096Z,6.19
2022-10-23T18:37:41.295Z,6.48
2022-10-23T18:40:09.407Z,7.49
2022-10-23T18:42:36.237Z,11.37
2022-10-23T18:45:02.873Z,9.15
2022-10-23T18:47:29.461Z,8.91
2022-10-23T18:49:58.837Z,9.05
2022-10-23T18:52:25.557Z,8.11
2022-10-23T18:54:54.430Z,7.63
2022-10-23T18:57:23.385Z,7.56
2022-10-23T18:59:49.999Z,9.86
2022-10-23T19:02:16.857Z,9.91
2022-10-23T19:04:43.713Z,7.53
2022-10-23T19:07:10.339Z,7.39
2022-10-23T19:09:37.069Z,7.19
2022-10-23T19:12:03.981Z,6.63
2022-10-23T19:14:30.610Z,6.91
2022-10-23T19:16:59.980Z,7.35
2022-10-23T19:19:39.455Z,7.26
2022-10-23T19:22:09.808Z,6.48
2022-10-23T19:24:53.683Z,6.86
2022-10-23T19:27:20.671Z,5.92
2022-10-23T19:29:51.665Z,6.45
2022-10-23T19:32:18.401Z,6.17
2022-10-23T19:34:44.984Z,6.25
2022-10-23T19:37:11.633Z,6.31
2022-10-23T19:39:38.512Z,6.43
2022-10-23T19:42:05.641Z,6.66
2022-10-23T19:44:32.286Z,6.40
2022-10-23T19:46:58.938Z,6.27
2022-10-23T19:49:25.533Z,6.07
2022-10-23T19:51:52.203Z,6.04
2022-10-23T19:54:20.970Z,6.03
2022-10-23T19:56:48.422Z,5.64
2022-10-23T19:59:15.142Z,5.71
2022-10-23T20:01:45.071Z,5.65
2022-10-23T20:04:15.852Z,4.97
2022-10-23T20:06:42.480Z,4.77
2022-10-23T20:09:09.190Z,3.87
2022-10-23T20:11:40.600Z,4.16
2022-10-23T20:14:07.892Z,3.84
2022-10-23T20:16:38.783Z,3.92
2022-10-23T20:19:09.363Z,3.76
2022-10-23T20:21:37.875Z,3.91
2022-10-23T20:24:07.841Z,4.25
2022-10-23T20:26:34.930Z,4.26
2022-10-23T20:29:01.538Z,4.29
2022-10-23T20:31:28.158Z,4.77
2022-10-23T20:33:55.931Z,4.52
2022-10-23T20:36:35.360Z,4.45
2022-10-23T20:39:06.292Z,4.47
2022-10-23T20:41:33.414Z,4.31
2022-10-23T20:44:00.657Z,4.63
2022-10-23T20:46:27.403Z,4.46
2022-10-23T20:48:54.132Z,4.24
2022-10-23T20:51:23.498Z,4.59
2022-10-23T20:53:51.372Z,4.45
2022-10-23T20:56:30.538Z,6.31
2022-10-23T20:59:05.324Z,4.81
2022-10-23T21:01:35.895Z,4.48
2022-10-23T21:04:03.303Z,4.54
2022-10-23T21:06:45.741Z,4.84
2022-10-23T21:09:18.812Z,4.40
2022-10-23T21:11:45.562Z,4.43
2022-10-23T21:14:12.544Z,4.41
2022-10-23T21:16:41.141Z,4.17
2022-10-23T21:19:10.460Z,4.25
2022-10-23T21:21:37.112Z,4.37
2022-10-23T21:24:10.714Z,4.49
2022-10-23T21:26:37.408Z,4.26
2022-10-23T21:29:18.007Z,4.51
2022-10-23T21:31:45.481Z,4.43
2022-10-23T21:34:12.220Z,4.32
2022-10-23T21:36:48.606Z,4.07
2022-10-23T21:39:20.703Z,4.16
2022-10-23T21:41:47.340Z,4.30
2022-10-23T21:44:13.985Z,4.51
2022-10-23T21:46:40.595Z,4.38
2022-10-23T21:49:07.334Z,4.21
2022-10-23T21:51:36.501Z,3.77
2022-10-23T21:54:10.564Z,4.50
2022-10-23T21:56:42.752Z,4.37
2022-10-23T21:59:12.780Z,4.59
2022-10-23T22:01:41.905Z,4.52
2022-10-23T22:04:09.130Z,4.86
2022-10-23T22:06:37.006Z,5.09
2022-10-23T22:09:05.701Z,4.43
2022-10-23T22:11:32.713Z,4.60
2022-10-23T22:14:01.522Z,5.08
2022-10-23T22:16:28.141Z,4.89
2022-10-23T22:18:54.886Z,5.22
2022-10-23T22:21:24.983Z,4.61
2022-10-23T22:23:54.780Z,5.06
2022-10-23T22:26:24.039Z,4.50
2022-10-23T22:28:53.962Z,4.21
2022-10-23T22:31:24.474Z,4.23
2022-10-23T22:33:52.250Z,3.84
2022-10-23T22:36:20.048Z,3.91
2022-10-23T22:38:47.105Z,3.92
2022-10-23T22:41:15.376Z,3.70
2022-10-23T22:43:42.025Z,3.71
2022-10-23T22:46:15.830Z,3.58
2022-10-23T22:48:44.033Z,3.85
2022-10-23T22:51:13.433Z,2.54
2022-10-23T22:53:40.274Z,1.96
2022-10-23T22:56:15.358Z,1.82
2022-10-23T22:58:42.214Z,2.01
2022-10-23T23:01:14.098Z,1.94
2022-10-23T23:03:41.080Z,1.85
2022-10-23T23:06:09.242Z,2.21
2022-10-23T23:08:37.616Z,1.90
2022-10-23T23:11:05.898Z,1.75
2022-10-23T23:13:32.780Z,1.96
2022-10-23T23:16:02.886Z,2.18
2022-10-23T23:18:29.798Z,1.93
2022-10-23T23:21:05.662Z,1.85
2022-10-23T23:23:32.408Z,1.53
2022-10-23T23:25:59.129Z,1.96
2022-10-23T23:28:25.741Z,1.67
2022-10-23T23:31:06.129Z,1.48
2022-10-23T23:33:32.865Z,1.65
2022-10-23T23:35:59.786Z,1.88
2022-10-23T23:38:26.775Z,1.81
2022-10-23T23:40:53.983Z,1.79
2022-10-23T23:43:20.699Z,1.84
2022-10-23T23:45:47.282Z,1.94
2022-10-23T23:48:13.952Z,1.89
2022-10-23T23:50:41.454Z,1.82
2022-10-23T23:53:08.098Z,1.95
2022-10-23T23:55:34.999Z,1.94
2022-10-23T23:58:01.977Z,1.91
